createdAt,value
2016-12-11T00:00:04.629Z,6
2016-12-11T00:05:05.112Z,8
2016-12-11T00:10:04.971Z,10
2016-12-11T00:15:04.873Z,8
2016-12-11T00:20:04.613Z,8
2016-12-11T00:25:04.489Z,7
2016-12-11T00:30:04.657Z,6
2016-12-11T00:35:04.185Z,7
2016-12-11T00:40:04.672Z,7
2016-12-11T00:45:04.536Z,6
2016-12-11T00:50:04.943Z,15
2016-12-11T00:55:04.887Z,8
2016-12-11T01:00:04.627Z,9
2016-12-11T01:05:05.016Z,13
2016-12-11T01:10:05.031Z,13
2016-12-11T01:15:05.058Z,6
2016-12-11T01:20:04.687Z,9
2016-12-11T01:25:04.358Z,11
2016-12-11T01:30:05.203Z,11
2016-12-11T01:35:04.636Z,7
2016-12-11T01:40:04.518Z,11
2016-12-11T01:45:04.381Z,13
2016-12-11T01:50:04.759Z,9
2016-12-11T01:55:04.591Z,9
2016-12-11T02:00:04.893Z,7
2016-12-11T02:05:04.588Z,8
2016-12-11T02:10:05.106Z,4
2016-12-11T02:15:05.259Z,12
2016-12-11T02:20:05.076Z,7
2016-12-11T02:25:04.435Z,9
2016-12-11T02:30:04.614Z,6
2016-12-11T02:35:04.783Z,5
2016-12-11T02:40:04.440Z,5
2016-12-11T02:45:04.985Z,7
2016-12-11T02:50:04.391Z,6
2016-12-11T02:55:04.392Z,7
2016-12-11T03:00:05.685Z,9
2016-12-11T03:05:08.478Z,9
2016-12-11T03:10:04.744Z,11
2016-12-11T03:15:04.566Z,7
2016-12-11T03:20:04.391Z,5
2016-12-11T03:25:05.058Z,5
2016-12-11T03:30:04.891Z,7
2016-12-11T03:35:04.472Z,5
2016-12-11T03:40:05.152Z,3
2016-12-11T03:45:05.141Z,5
2016-12-11T03:50:04.845Z,3
2016-12-11T03:55:04.699Z,5
2016-12-11T04:00:05.086Z,4
2016-12-11T04:05:06.085Z,4
2016-12-11T04:10:04.575Z,5
2016-12-11T04:15:04.555Z,4
2016-12-11T04:20:04.393Z,6
2016-12-11T04:25:04.651Z,6
2016-12-11T04:30:05.028Z,7
2016-12-11T04:35:04.490Z,4
2016-12-11T04:40:04.180Z,2
2016-12-11T04:45:04.744Z,6
2016-12-11T04:50:05.033Z,6
2016-12-11T04:55:05.031Z,6
2016-12-11T05:00:04.600Z,1
2016-12-11T05:05:05.018Z,3
2016-12-11T05:10:05.232Z,3
2016-12-11T05:15:04.361Z,2
2016-12-11T05:20:05.213Z,3
2016-12-11T05:25:04.727Z,3
2016-12-11T05:30:04.344Z,3
2016-12-11T05:35:04.488Z,2
2016-12-11T05:40:04.874Z,3
2016-12-11T05:45:04.128Z,2
2016-12-11T05:50:04.877Z,3
2016-12-11T05:55:04.369Z,2
2016-12-11T06:00:04.325Z,3
2016-12-11T06:05:04.236Z,3
2016-12-11T06:10:05.027Z,2
2016-12-11T06:15:05.037Z,4
2016-12-11T06:20:05.110Z,3
2016-12-11T06:25:05.008Z,2
2016-12-11T06:30:04.850Z,1
2016-12-11T06:35:05.256Z,3
2016-12-11T06:40:05.159Z,0
2016-12-11T06:45:05.088Z,0
2016-12-11T06:50:04.525Z,3
2016-12-11T06:55:04.568Z,0
2016-12-11T07:00:04.708Z,1
2016-12-11T07:05:04.451Z,1
2016-12-11T07:10:04.810Z,0
2016-12-11T07:15:04.911Z,3
2016-12-11T07:20:04.607Z,1
2016-12-11T07:25:05.183Z,2
2016-12-11T07:30:05.305Z,0
2016-12-11T07:35:04.645Z,2
2016-12-11T07:40:05.311Z,1
2016-12-11T07:45:04.689Z,3
2016-12-11T07:50:05.150Z,3
2016-12-11T07:55:04.376Z,2
2016-12-11T08:00:04.546Z,1
2016-12-11T08:05:05.040Z,2
2016-12-11T08:10:05.232Z,0
2016-12-11T08:15:04.302Z,2
2016-12-11T08:20:04.348Z,2
2016-12-11T08:25:04.620Z,2
2016-12-11T08:30:05.331Z,0
2016-12-11T08:35:04.684Z,0
2016-12-11T08:40:04.692Z,2
2016-12-11T08:45:05.060Z,0
2016-12-11T08:50:04.537Z,3
2016-12-11T08:55:04.833Z,7
2016-12-11T09:00:04.717Z,3
2016-12-11T09:05:04.234Z,5
2016-12-11T09:10:04.903Z,2
2016-12-11T09:15:04.964Z,3
2016-12-11T09:20:04.172Z,1
2016-12-11T09:25:04.458Z,3
2016-12-11T09:30:04.541Z,4
2016-12-11T09:35:04.828Z,3
2016-12-11T09:40:05.163Z,2
2016-12-11T09:45:05.046Z,3
2016-12-11T09:50:05.006Z,0
2016-12-11T09:55:04.544Z,3
2016-12-11T10:00:04.884Z,2
2016-12-11T10:05:04.660Z,3
2016-12-11T10:10:04.928Z,0
2016-12-11T10:15:04.256Z,3
2016-12-11T10:20:04.411Z,2
2016-12-11T10:25:04.479Z,4
2016-12-11T10:30:04.411Z,3
2016-12-11T10:35:05.103Z,6
2016-12-11T10:40:04.628Z,3
2016-12-11T10:45:04.983Z,1
2016-12-11T10:50:04.827Z,3
2016-12-11T10:55:04.648Z,3
2016-12-11T11:00:04.989Z,3
2016-12-11T11:05:04.952Z,4
2016-12-11T11:10:04.710Z,4
2016-12-11T11:15:04.517Z,2
2016-12-11T11:20:04.598Z,4
2016-12-11T11:25:05.166Z,3
2016-12-11T11:30:04.314Z,3
2016-12-11T11:35:04.769Z,3
2016-12-11T11:40:04.423Z,5
2016-12-11T11:45:04.324Z,7
2016-12-11T11:50:04.346Z,2
2016-12-11T11:55:04.735Z,2
2016-12-11T12:00:04.931Z,3
2016-12-11T12:05:04.963Z,5
2016-12-11T12:10:05.173Z,3
2016-12-11T12:15:04.915Z,2
2016-12-11T12:20:04.816Z,1
2016-12-11T12:25:05.251Z,2
2016-12-11T12:30:05.090Z,3
2016-12-11T12:35:04.782Z,0
2016-12-11T12:40:04.804Z,0
2016-12-11T12:45:04.565Z,2
2016-12-11T12:50:05.310Z,2
2016-12-11T12:55:04.951Z,4
2016-12-11T13:00:05.124Z,2
2016-12-11T13:05:04.464Z,8
2016-12-11T13:10:05.009Z,3
2016-12-11T13:15:05.106Z,3
2016-12-11T13:20:05.210Z,0
2016-12-11T13:25:05.215Z,2
2016-12-11T13:30:04.292Z,0
2016-12-11T13:35:04.622Z,4
2016-12-11T13:40:04.601Z,0
2016-12-11T13:45:04.911Z,2
2016-12-11T13:50:04.622Z,2
2016-12-11T13:55:04.656Z,5
2016-12-11T14:00:04.352Z,4
2016-12-11T14:05:05.015Z,3
2016-12-11T14:10:04.718Z,2
2016-12-11T14:15:04.663Z,0
2016-12-11T14:20:04.637Z,5
2016-12-11T14:45:04.273Z,3
2016-12-11T14:50:04.879Z,3
2016-12-11T14:55:04.720Z,3
2016-12-11T15:00:04.633Z,3
2016-12-11T15:05:04.307Z,3
2016-12-11T15:10:04.546Z,3
2016-12-11T15:15:04.341Z,3
2016-12-11T15:20:04.787Z,4
2016-12-11T15:25:04.941Z,3
2016-12-11T15:30:04.725Z,2
2016-12-11T15:35:04.563Z,0
2016-12-11T15:40:04.483Z,0
2016-12-11T15:45:05.146Z,1
2016-12-11T15:50:04.502Z,2
2016-12-11T15:55:05.259Z,3
2016-12-11T16:00:04.348Z,1
2016-12-11T16:05:04.975Z,4
2016-12-11T16:10:04.691Z,4
2016-12-11T16:15:04.589Z,3
2016-12-11T16:20:04.365Z,3
2016-12-11T16:25:04.914Z,3
2016-12-11T16:30:04.635Z,4
2016-12-11T16:35:04.401Z,3
2016-12-11T16:40:04.989Z,4
2016-12-11T16:45:04.376Z,2
2016-12-11T16:50:04.749Z,2
2016-12-11T16:55:04.517Z,6
2016-12-11T17:00:05.019Z,2
2016-12-11T17:05:04.749Z,2
2016-12-11T17:10:04.741Z,3
2016-12-11T17:15:04.231Z,2
2016-12-11T17:20:04.725Z,3
2016-12-11T17:25:04.444Z,3
2016-12-11T17:30:04.903Z,5
2016-12-11T17:35:04.606Z,3
2016-12-11T17:40:05.307Z,3
2016-12-11T17:45:04.646Z,3
2016-12-11T17:50:05.174Z,3
2016-12-11T17:55:04.595Z,7
2016-12-11T18:00:04.967Z,2
2016-12-11T18:05:04.783Z,3
2016-12-11T18:10:04.488Z,2
2016-12-11T18:15:04.773Z,2
2016-12-11T18:20:04.909Z,2
2016-12-11T18:25:04.701Z,3
2016-12-11T18:30:05.025Z,3
2016-12-11T18:35:04.366Z,1
2016-12-11T18:40:04.927Z,2
2016-12-11T18:45:04.682Z,2
2016-12-11T18:50:04.982Z,0
2016-12-11T18:55:05.169Z,0
2016-12-11T19:00:05.082Z,3
2016-12-11T19:05:05.049Z,3
2016-12-11T19:10:04.272Z,2
2016-12-11T19:15:05.233Z,1
2016-12-11T19:20:04.407Z,2
2016-12-11T19:25:04.844Z,0
2016-12-11T19:30:04.864Z,2
2016-12-11T19:35:04.659Z,4
2016-12-11T19:40:04.489Z,4
2016-12-11T19:45:05.204Z,3
2016-12-11T19:50:04.738Z,3
2016-12-11T19:55:04.965Z,3
2016-12-11T20:00:05.239Z,4
2016-12-11T20:05:05.173Z,5
2016-12-11T20:10:04.199Z,2
2016-12-11T20:15:05.075Z,2
2016-12-11T20:20:04.323Z,5
2016-12-11T20:25:04.820Z,0
2016-12-11T20:30:04.775Z,3
2016-12-11T20:35:04.387Z,2
2016-12-11T20:40:04.466Z,2
2016-12-11T20:45:05.031Z,2
2016-12-11T20:50:04.751Z,4
2016-12-11T20:55:04.941Z,2
2016-12-11T21:00:04.845Z,3
2016-12-11T21:05:04.594Z,2
2016-12-11T21:10:04.562Z,4
2016-12-11T21:15:04.268Z,3
2016-12-11T21:20:05.016Z,1
2016-12-11T21:25:04.788Z,2
2016-12-11T21:30:04.529Z,2
2016-12-11T21:35:04.822Z,0
2016-12-11T21:40:05.002Z,0
2016-12-11T21:45:04.796Z,1
2016-12-11T21:50:05.153Z,0
2016-12-11T21:55:04.757Z,1
2016-12-11T22:00:04.408Z,3
2016-12-11T22:05:05.046Z,1
2016-12-11T22:10:04.313Z,2
2016-12-11T22:15:04.338Z,2
2016-12-11T22:20:04.389Z,0
2016-12-11T22:25:05.048Z,0
2016-12-11T22:30:04.860Z,0
2016-12-11T22:35:04.720Z,0
2016-12-11T22:40:04.906Z,1
2016-12-11T22:45:04.439Z,2
2016-12-11T22:50:05.075Z,1
2016-12-11T22:55:05.088Z,1
2016-12-11T23:00:04.943Z,0
2016-12-11T23:05:04.303Z,0
2016-12-11T23:10:05.137Z,2
2016-12-11T23:15:05.071Z,0
2016-12-11T23:20:04.843Z,0
2016-12-11T23:25:04.475Z,0
2016-12-11T23:30:04.305Z,0
2016-12-11T23:35:05.247Z,0
2016-12-11T23:40:04.561Z,0
2016-12-11T23:45:04.585Z,0
2016-12-11T23:50:04.470Z,0
2016-12-11T23:55:04.270Z,2
